Flight Track Log - Related Links

Times and Time Zones

All times are in EDT time to prevent confusion due to time zone crossing. See the DAL571 flight status page for this flight to view local times or setup timezone preferences in your user account.

Time Position Orientation Groundspeed Altitude Reporting Facility
EDT Latitude Longitude Course Direction KTS MPH feet Rate Location/Type
Sun 10:16:21 AM 33.6167 -84.4833 145° Southeast 185 213 3,000  Level Atlanta TRACON
Sun 10:17:21 AM 33.5833 -84.5667 244° Southwest 254 292 5,100 2,192 Climbing Atlanta TRACON
Sun 10:18:05 AM 33.5489 -84.5947 214° Southwest 360 414 6,800 2,712 Climbing Atlanta Center
Sun 10:19:00 AM 33.2518 -84.1348 140° Southeast  Level FlightAware Approximate
Sun 10:19:05 AM 33.4717 -84.5867 175° South 270 311 9,800  Level Atlanta Center
Sun 10:20:00 AM 33.1516 -84.0348 140° Southeast  Level FlightAware Approximate
Sun 10:20:05 AM 33.4133 -84.5167 135° Southeast 270 311 11,600  Level Atlanta Center
Sun 10:21:00 AM 33.0539 -83.9420 145° Southeast  Level FlightAware Approximate
Sun 10:21:05 AM 33.3533 -84.4194 126° Southeast 349 402 13,400  Level Atlanta Center
Sun 10:22:05 AM 33.2889 -84.3147 126° Southeast 379 436 15,800 2,200 Climbing Atlanta Center
Sun 10:23:05 AM 33.2139 -84.1953 127° Southeast 397 457 17,800 1,950 Climbing Atlanta Center
Sun 10:24:05 AM 33.1431 -84.0761 125° Southeast 421 484 19,700 1,850 Climbing Atlanta Center
Sun 10:25:05 AM 33.0658 -83.9669 130° Southeast 435 501 21,500 1,750 Climbing Atlanta Center
Sun 10:26:05 AM 32.9739 -83.8828 142° Southeast 446 513 23,200 1,700 Climbing Atlanta Center
Sun 10:27:05 AM 32.8694 -83.7964 145° Southeast 451 519 24,900 1,600 Climbing Atlanta Center
Sun 10:28:05 AM 32.7628 -83.7103 146° Southeast 462 532 26,400 1,250 Climbing Atlanta Center
Sun 10:29:05 AM 32.6517 -83.6244 147° Southeast 474 545 27,400 1,000 Climbing Atlanta Center
Sun 10:30:05 AM 32.5386 -83.5339 146° Southeast 486 559 28,400 1,400 Climbing Atlanta Center
Sun 10:31:05 AM 32.4194 -83.4408 147° Southeast 498 573 30,200 1,650 Climbing Atlanta Center
Sun 10:32:05 AM 32.2936 -83.3436 147° Southeast 503 579 31,700 1,485 Climbing Atlanta Center
Sun 10:32:46 AM 32.2264 -83.2881 145° Southeast 500 575 32,700 1,545 Climbing Jacksonville Center
Sun 10:33:46 AM 32.1139 -83.2042 148° Southeast 500 575 34,300 1,450 Climbing Jacksonville Center
Sun 10:34:46 AM 32.0036 -83.1181 146° Southeast 495 570 35,600 1,200 Climbing Jacksonville Center
Sun 10:35:46 AM 31.8931 -83.0319 147° Southeast 484 557 36,700 1,200 Climbing Jacksonville Center
Sun 10:36:46 AM 31.7822 -82.9464 147° Southeast 479 551 38,000 650 Climbing Jacksonville Center
Sun 10:37:46 AM 31.6739 -82.8658 148° Southeast 479 551 38,000  Level Jacksonville Center
Sun 10:38:46 AM 31.5631 -82.7828 147° Southeast 473 544 38,000  Level Jacksonville Center
Sun 10:39:46 AM 31.4522 -82.6978 147° Southeast 473 544 38,000  Level Jacksonville Center
Sun 10:40:46 AM 31.3331 -82.6128 149° Southeast 470 541 38,000  Level Jacksonville Center
Sun 10:41:46 AM 31.2222 -82.5306 148° Southeast 465 535 38,000  Level Jacksonville Center
Sun 10:42:46 AM 31.1133 -82.4486 147° Southeast 470 541 38,000  Level Jacksonville Center
Sun 10:43:46 AM 31.0025 -82.3617 146° Southeast 475 547 38,000  Level Jacksonville Center
Sun 10:44:46 AM 30.8936 -82.2800 147° Southeast 475 547 38,000  Level Jacksonville Center
Sun 10:45:46 AM 30.7825 -82.1986 148° Southeast 475 547 38,000  Level Jacksonville Center
Sun 10:46:46 AM 30.6714 -82.1147 147° Southeast 475 547 38,000  Level Jacksonville Center
Sun 10:47:46 AM 30.5642 -82.0361 148° Southeast 475 547 38,000  Level Jacksonville Center
Sun 10:48:47 AM 30.4531 -81.9481 146° Southeast 480 552 38,000  Level Jacksonville Center
Sun 10:49:46 AM 30.3564 -81.8742 147° Southeast 480 552 38,000  Level Jacksonville Center
Sun 10:50:46 AM 30.2431 -81.7939 149° Southeast 475 547 38,000  Level Jacksonville Center
Sun 10:51:47 AM 30.1317 -81.7158 149° Southeast 475 547 38,000  Level Jacksonville Center
Sun 10:52:46 AM 30.0222 -81.6356 148° Southeast 475 547 38,000  Level Jacksonville Center
Sun 10:53:46 AM 29.9108 -81.5556 148° Southeast 475 547 38,000  Level Jacksonville Center
Sun 10:54:46 AM 29.8014 -81.4781 148° Southeast 475 547 38,000  Level Jacksonville Center
Sun 10:55:46 AM 29.6900 -81.3958 147° Southeast 475 547 38,000  Level Jacksonville Center
Sun 10:56:46 AM 29.5803 -81.3164 148° Southeast 475 547 38,000  Level Jacksonville Center
Sun 10:57:46 AM 29.4686 -81.2325 147° Southeast 475 547 38,000  Level Jacksonville Center
Sun 10:58:47 AM 29.3592 -81.1556 148° Southeast 475 547 38,000  Level Jacksonville Center
Sun 11:00:42 AM 29.1539 -80.9531 139° Southeast 484 557 38,000  Level Miami Center
Sun 11:01:42 AM 29.0569 -80.8472 136° Southeast 484 557 38,000  Level Miami Center
Sun 11:02:42 AM 28.9594 -80.7442 137° Southeast 484 557 38,000  Level Miami Center
Sun 11:03:42 AM 28.8644 -80.6319 134° Southeast 489 563 38,000  Level Miami Center
Sun 11:04:42 AM 28.7800 -80.5128 129° Southeast 484 557 38,000  Level Miami Center
Sun 11:05:42 AM 28.7119 -80.3947 123° Southeast 490 564 38,000  Level Miami Center
Sun 11:06:42 AM 28.6378 -80.2694 124° Southeast 490 564 38,000  Level Miami Center
Sun 11:07:42 AM 28.5536 -80.1275 124° Southeast 490 564 38,000  Level Miami Center
Sun 11:08:42 AM 28.4769 -80.0000 124° Southeast 496 571 38,000  Level Miami Center
Sun 11:09:42 AM 28.3983 -79.8750 126° Southeast 496 571 38,000  Level Miami Center
Sun 11:10:42 AM 28.3239 -79.7481 124° Southeast 496 571 38,000  Level Miami Center
Sun 11:11:42 AM 28.2469 -79.6211 125° Southeast 496 571 38,000  Level Miami Center
Sun 11:12:42 AM 28.1761 -79.5089 126° Southeast 490 564 38,000  Level Miami Center
Sun 11:13:42 AM 28.0989 -79.3844 125° Southeast 490 564 38,000  Level Miami Center
Sun 11:14:42 AM 28.0239 -79.2606 124° Southeast 485 558 38,000  Level Miami Center
Sun 11:15:42 AM 27.9486 -79.1344 124° Southeast 485 558 38,000  Level Miami Center
Sun 11:16:42 AM 27.8692 -79.0083 125° Southeast 485 558 38,000 350 Level Miami Center
Sun 11:17:42 AM 27.7833 -78.8706 125° Southeast 485 558 38,700 500 Climbing Miami Center
Sun 11:18:42 AM 27.7058 -78.7472 125° Southeast 485 558 39,000 150 Climbing Miami Center
Sun 11:19:42 AM 27.6403 -78.6358 124° Southeast 478 550 39,000  Level Miami Center
Sun 11:20:42 AM 27.5667 -78.5131 124° Southeast 478 550 39,000 -50 Level Miami Center
Sun 11:21:42 AM 27.4928 -78.3878 124° Southeast 478 550 38,900  Descending Miami Center
Sun 11:22:42 AM 27.4189 -78.2606 123° Southeast 478 550 39,000 50 Climbing Miami Center
Sun 11:23:42 AM 27.3469 -78.1308 122° Southeast 484 557 39,000  Level Miami Center
Sun 11:24:42 AM 27.2708 -78.0061 124° Southeast 485 558 39,000  Level Miami Center
Sun 11:25:42 AM 27.1944 -77.8794 124° Southeast 491 565 39,000  Level Miami Center
Sun 11:26:42 AM 27.1219 -77.7597 124° Southeast 484 557 39,000  Level Miami Center
Sun 11:27:42 AM 27.0475 -77.6261 122° Southeast 484 557 39,000  Level Miami Center
Sun 11:28:42 AM 26.9731 -77.5019 124° Southeast 445 512 39,000  Level Miami Center
Sun 11:29:42 AM 26.8900 -77.3664 124° Southeast 492 566 39,000  Level Miami Center
Sun 11:30:42 AM 26.8153 -77.2358 123° Southeast 481 554 39,000  Level Miami Center
Sun 11:31:42 AM 26.7403 -77.1169 125° Southeast 487 560 39,000  Level Miami Center
Sun 11:32:42 AM 26.6653 -76.9911 124° Southeast 487 560 39,000  Level Miami Center
Sun 11:33:42 AM 26.5922 -76.8703 124° Southeast 487 560 39,000  Level Miami Center
Sun 11:34:42 AM 26.5169 -76.7450 124° Southeast 487 560 39,000  Level Miami Center
Sun 11:35:42 AM 26.4394 -76.6128 123° Southeast 487 560 39,000  Level Miami Center
Sun 11:36:42 AM 26.3681 -76.4969 125° Southeast 488 562 39,000  Level Miami Center
Sun 11:37:42 AM 26.2925 -76.3719 124° Southeast 481 554 39,000  Level Miami Center
Sun 11:38:42 AM 26.2147 -76.2447 124° Southeast 481 554 39,000  Level Miami Center
Sun 11:39:42 AM 26.1431 -76.1272 124° Southeast 486 559 39,000  Level Miami Center
Sun 11:40:42 AM 26.0608 -75.9981 125° Southeast 486 559 39,000  Level Miami Center
Sun 11:41:42 AM 25.9869 -75.8739 123° Southeast 486 559 39,000  Level Miami Center
Sun 11:42:42 AM 25.9131 -75.7519 124° Southeast 491 565 39,000  Level Miami Center
Sun 11:43:42 AM 25.8325 -75.6281 126° Southeast 491 565 39,000  Level Miami Center
Sun 11:44:42 AM 25.7603 -75.5067 123° Southeast 486 559 39,000  Level Miami Center
Sun 11:45:42 AM 25.6883 -75.3989 127° Southeast 491 565 39,000  Level Miami Center
Sun 11:46:42 AM 25.6139 -75.2778 124° Southeast 483 556 39,000  Level Miami Center
Sun 11:47:42 AM 25.5372 -75.1497 124° Southeast 483 556 39,000  Level Miami Center
Sun 11:48:42 AM 25.4583 -75.0267 125° Southeast 488 562 39,000  Level Miami Center
Sun 11:49:42 AM 25.3839 -74.9058 124° Southeast 483 556 39,000  Level Miami Center
Sun 11:50:42 AM 25.3047 -74.7853 126° Southeast 488 562 39,000  Level Miami Center
Sun 11:51:42 AM 25.2258 -74.6650 126° Southeast 488 562 39,000  Level Miami Center
Sun 11:52:42 AM 25.1322 -74.5542 133° Southeast 481 554 39,000  Level Miami Center
Sun 11:53:42 AM 25.0406 -74.4436 132° Southeast 481 554 39,000  Level Miami Center
Sun 11:55:42 AM 24.8572 -74.2297 133° Southeast 488 562 39,000  Level Miami Center
Sun 11:56:42 AM 24.7694 -74.1217 132° Southeast 488 562 39,000  Level Miami Center
Sun 11:57:42 AM 24.6775 -74.0094 132° Southeast 488 562 39,000  Level Miami Center
Sun 11:58:42 AM 24.6181 -73.8622 114° Southeast 483 556 39,000  Level Miami Center
Sun 11:59:42 AM 24.5775 -73.7169 107° East 477 549 39,000  Level Miami Center
Sun 12:00:42 PM 24.5283 -73.5719 110° East 488 562 39,000  Level Miami Center
Sun 12:01:42 PM 24.4547 -73.4486 123° Southeast 488 562 39,000  Level Miami Center
Sun 12:02:42 PM 24.3789 -73.3319 125° Southeast 483 556 39,000  Level Miami Center
Sun 12:03:42 PM 24.2986 -73.2089 126° Southeast 483 556 39,000  Level Miami Center
Sun 12:04:42 PM 24.2161 -73.0883 127° Southeast 490 564 39,000  Level Miami Center
Sun 12:05:42 PM 24.1356 -72.9656 126° Southeast 490 564 39,000  Level Miami Center
Sun 12:06:42 PM 24.0656 -72.8472 123° Southeast 490 564 39,000  Level Miami Center
Sun 12:07:42 PM 23.9744 -72.7228 129° Southeast 496 571 39,000  Level Miami Center
Sun 12:08:42 PM 23.8939 -72.6028 126° Southeast 490 564 39,000  Level Miami Center
Sun 12:09:42 PM 23.8153 -72.4875 127° Southeast 485 558 39,000  Level Miami Center
Sun 12:10:42 PM 23.7406 -72.3586 122° Southeast 490 564 39,000  Level Miami Center
Sun 12:11:42 PM 23.6575 -72.2414 128° Southeast 490 564 39,000  Level Miami Center
Sun 12:12:42 PM 23.5786 -72.1172 125° Southeast 496 571 39,000  Level Miami Center
Sun 12:13:42 PM 23.4953 -71.9936 126° Southeast 496 571 39,000  Level Miami Center
Sun 12:14:42 PM 23.4117 -71.8703 126° Southeast 496 571 39,000  Level Miami Center
Sun 12:15:42 PM 23.3283 -71.7492 127° Southeast 501 577 39,000  Level Miami Center
Sun 12:16:42 PM 23.2492 -71.6281 125° Southeast 501 577 39,000  Level Miami Center
Sun 12:18:42 PM 23.0817 -71.3800 126° Southeast 506 582 39,000  Level Miami Center
Sun 12:19:42 PM 22.9978 -71.2550 126° Southeast 511 588 39,000  Level Miami Center
Sun 12:20:42 PM 22.9136 -71.1325 127° Southeast 511 588 39,000  Level Miami Center
Sun 12:21:42 PM 22.8386 -71.0233 127° Southeast 510 587 39,000  Level Miami Center
Sun 12:22:42 PM 22.7544 -70.9011 127° Southeast 510 587 39,000  Level Miami Center
Sun 12:23:42 PM 22.6703 -70.7767 126° Southeast 516 594 39,000  Level Miami Center
Sun 12:24:42 PM 22.5858 -70.6525 126° Southeast 511 588 39,000  Level Miami Center
Sun 12:25:42 PM 22.5017 -70.5331 127° Southeast 511 588 39,000  Level Miami Center
Sun 12:26:42 PM 22.4172 -70.4094 126° Southeast 511 588 39,000  Level Miami Center
Sun 12:27:42 PM 22.3328 -70.2858 126° Southeast 516 594 39,000  Level Miami Center
Sun 12:28:42 PM 22.2481 -70.1644 127° Southeast 511 588 39,000  Level Miami Center
Sun 12:29:42 PM 22.1633 -70.0389 126° Southeast 516 594 39,000  Level Miami Center
Sun 12:30:42 PM 22.0806 -69.9181 126° Southeast 516 594 39,000  Level Miami Center
Sun 12:31:42 PM 21.9936 -69.7928 127° Southeast 516 594 39,000  Level Miami Center
Sun 12:32:42 PM 21.9067 -69.6725 128° Southeast 516 594 39,000  Level Miami Center
Sun 12:33:42 PM 21.8214 -69.5453 126° Southeast 516 594 39,000  Level Miami Center
Sun 12:34:42 PM 21.7322 -69.4231 128° Southeast 521 600 39,000  Level Miami Center
Sun 12:35:42 PM 21.6489 -69.2986 126° Southeast 515 593 39,000  Level Miami Center
Sun 12:36:42 PM 21.5594 -69.1744 128° Southeast 520 598 39,000  Level Miami Center
Sun 12:37:42 PM 21.4697 -69.0506 128° Southeast 520 598 39,000  Level Miami Center
Sun 12:38:42 PM 21.3903 -68.9239 124° Southeast 520 598 39,000  Level Miami Center
Sun 12:39:42 PM 21.3006 -68.7981 127° Southeast 529 609 39,000  Level Miami Center
Sun 12:40:42 PM 21.2106 -68.6722 127° Southeast 529 609 39,000  Level Miami Center
Sun 12:41:42 PM 21.1164 -68.5494 129° Southeast 534 615 39,000  Level Miami Center
Sun 12:42:42 PM 21.0283 -68.4239 127° Southeast 534 615 39,000  Level Miami Center
Sun 12:43:42 PM 20.9403 -68.2964 126° Southeast 534 615 39,000  Level Miami Center
Sun 12:44:42 PM 20.8233 -68.1797 137° Southeast 534 615 39,000  Level Miami Center
Sun 12:45:42 PM 20.7597 -68.0467 117° Southeast 530 610 39,000  Level Miami Center
Sun 12:46:42 PM 20.6672 -67.9244 129° Southeast 535 616 39,000  Level Miami Center
Sun 12:47:42 PM 20.5750 -67.8022 129° Southeast 535 616 39,000  Level Miami Center
Sun 12:48:42 PM 20.4756 -67.6697 129° Southeast 535 616 39,000  Level Miami Center
Sun 12:50:05 PM 20.3333 -67.5000 132° Southeast 520 598 39,000  Level San Juan Center
Sun 12:51:05 PM 20.2500 -67.3833 127° Southeast 520 598 39,000  Level San Juan Center
Sun 12:52:05 PM 20.1500 -67.2667 132° Southeast 520 598 39,000  Level San Juan Center
Sun 12:53:06 PM 20.0667 -67.1500 127° Southeast 520 598 39,000  Level San Juan Center
Sun 12:54:06 PM 19.9667 -67.0333 132° Southeast 520 598 39,000 -347 Level San Juan Center
Sun 12:55:07 PM 19.8833 -66.9167 127° Southeast 520 598 38,300 -992 Descending San Juan Center
Sun 12:56:07 PM 19.7833 -66.7833 129° Southeast 520 598 37,000 -1,300 Descending San Juan Center
Sun 12:57:07 PM 19.7000 -66.6667 127° Southeast 520 598 35,700 -1,488 Descending San Juan Center
Sun 12:58:08 PM 19.6167 -66.5333 124° Southeast 530 610 34,000 -2,132 Descending San Juan Center
Sun 12:59:08 PM 19.5333 -66.4000 124° Southeast 550 633 31,400 -2,750 Descending San Juan Center
Sun 01:00:08 PM 19.4500 -66.2667 124° Southeast 530 610 28,500 -1,983 Descending San Juan Center
Sun 01:01:09 PM 19.3667 -66.1500 127° Southeast 510 587 27,400 -1,388 Descending San Juan Center
Sun 01:02:09 PM 19.2667 -66.0333 132° Southeast 510 587 25,700 -2,350 Descending San Juan Center
Sun 01:03:09 PM 19.1667 -65.9333 137° Southeast 500 575 22,700 -2,430 Descending San Juan Center
Sun 01:04:10 PM 19.0667 -65.8333 137° Southeast 470 541 20,800 -1,835 Descending San Juan Center
Sun 01:05:10 PM 18.9500 -65.7333 141° Southeast 460 529 19,000 -2,450 Descending San Juan Center
Sun 01:06:10 PM 18.8667 -65.6500 137° Southeast 440 506 15,900 -2,950 Descending San Juan Center
Sun 01:07:10 PM 18.7667 -65.5667 142° Southeast 410 472 13,100 -2,600 Descending San Juan Center
Sun 01:08:10 PM 18.7000 -65.5000 137° Southeast 360 414 10,700 -1,983 Descending San Juan Center
Sun 01:09:11 PM 18.6167 -65.4500 150° Southeast 320 368 9,100 -1,587 Descending San Juan Center
Sun 01:10:11 PM 18.5667 -65.4000 137° Southeast 280 322 7,500 -1,537 Descending San Juan Center
Sun 01:11:12 PM 18.5167 -65.3333 128° Southeast 270 311 6,000 -1,438 Descending San Juan Center
Sun 01:12:12 PM 18.4500 -65.2833 145° Southeast 260 299 4,600 -1,250 Descending San Juan Center
Sun 01:13:12 PM 18.4000 -65.2333 136° Southeast 260 299 3,500 -800 Descending San Juan Center
Sun 01:14:12 PM 18.3500 -65.2000 148° Southeast 230 265 3,000 -347 Descending San Juan Center
Sun 01:15:13 PM 18.3167 -65.1333 118° Southeast 190 219 2,800 -446 Descending San Juan Center
Sun 01:16:13 PM 18.3333 -65.0833 71° East 180 207 2,100 -750 Descending San Juan Center
Sun 01:17:13 PM 18.3333 -65.0333 90° East 170 196 1,300 -843 Descending San Juan Center
Sun 01:18:14 PM 18.3333 -64.9833 90° East 150 173 400 -885 Descending San Juan Center

Login

Don't have an account? Register now (free) for customized features, flight alerts, and more!